

Wyoming Mesonet
Water Resources Data System and State Climate Office
SEO WACNet, UW USACE UMRB, USDA-ARS, BLM
| Wind | Soil | |||||||||||||||||||
| Temp | Precip | Speed | Dir | Gust | Dir | Humidity | Pressure | Solar | Snow | Temperature (Deg F) | Moisture (%) | |||||||||
| Date Time (MST) | (F) | (in) | (mph) | (deg) | (mph) | (deg) | (%) | (Mbars) | (w/m^2) | (in) | 5cm | 10cm | 20cm | 50cm | 1m | 5cm | 10cm | 20cm | 50cm | 1m |
| 2026-08-30 00:00:00 | 57.97 | 0.00 | 6.79 | 225 | 13.91 | 214 | 67.4 | 836.0 | 0.0 | -0.6 | 72.32 | 74.84 | 73.94 | 67.46 | 65.30 | 3.4% | 13.5% | 13.7% | 17.2% | 16.1% |
| 2026-08-30 01:00:00 | 59.11 | 0.00 | 6.18 | 158 | 12.42 | 242 | 72.8 | 836.0 | 0.0 | -0.6 | 71.60 | 73.94 | 73.76 | 67.46 | 65.30 | 3.4% | 13.5% | 13.7% | 17.2% | 16.1% |
| 2026-08-30 02:00:00 | 57.47 | 0.00 | 4.65 | 104 | 14.16 | 246 | 70.3 | 836.0 | 0.0 | -0.6 | 70.70 | 73.22 | 73.40 | 67.46 | 65.30 | 3.3% | 13.4% | 13.6% | 17.2% | 16.1% |
| 2026-08-30 03:00:00 | 57.36 | 0.00 | 5.76 | 182 | 12.42 | 114 | 74.2 | 836.0 | 0.0 | -0.5 | 69.98 | 72.50 | 73.04 | 67.46 | 65.30 | 3.4% | 13.3% | 13.6% | 17.2% | 16.1% |
| 2026-08-30 04:00:00 | 56.07 | 0.00 | 3.90 | 205 | 6.96 | 228 | 75.6 | 836.0 | 0.0 | -0.5 | 69.26 | 71.78 | 72.68 | 67.46 | 65.30 | 3.3% | 13.4% | 13.6% | 17.2% | 16.1% |
| 2026-08-30 05:00:00 | 54.32 | 0.00 | 5.97 | 212 | 11.55 | 224 | 78.7 | 836.0 | 0.0 | -0.6 | 68.72 | 71.06 | 72.32 | 67.46 | 65.30 | 3.4% | 13.3% | 13.6% | 17.3% | 16.1% |
| 2026-08-30 06:00:00 | 54.66 | 0.00 | 5.12 | 137 | 9.19 | 207 | 77.0 | 837.0 | 21.0 | -0.6 | 67.82 | 70.70 | 71.96 | 67.64 | 65.30 | 3.3% | 13.3% | 13.6% | 17.3% | 16.1% |
| 2026-08-30 07:00:00 | 59.22 | 0.00 | 4.99 | 189 | 10.44 | 193 | 69.5 | 837.0 | 78.3 | -0.4 | 67.46 | 69.98 | 71.60 | 67.64 | 65.30 | 3.3% | 13.1% | 13.6% | 17.3% | 16.1% |
| 2026-08-30 08:00:00 | 66.02 | 0.00 | 7.46 | 203 | 10.93 | 171 | 53.5 | 837.0 | 447.7 | -0.4 | 68.54 | 69.62 | 71.24 | 67.64 | 65.30 | 3.4% | 13.1% | 13.6% | 17.3% | 16.1% |
| 2026-08-30 09:00:00 | 73.29 | 0.00 | 6.90 | 173 | 10.44 | 155 | 40.6 | 837.0 | 676.2 | -0.3 | 70.52 | 69.44 | 71.06 | 67.64 | 65.30 | 3.4% | 13.1% | 13.6% | 17.3% | 16.1% |
| 2026-08-30 10:00:00 | 73.35 | 0.00 | 11.15 | 217 | 17.76 | 205 | 39.7 | 837.0 | 545.9 | -0.4 | 73.58 | 70.16 | 70.70 | 67.64 | 65.30 | 3.4% | 13.2% | 13.6% | 17.3% | 16.1% |
| 2026-08-30 11:00:00 | 74.39 | 0.00 | 15.11 | 197 | 21.36 | 214 | 35.5 | 837.0 | 805.0 | -0.2 | 77.90 | 71.42 | 70.52 | 67.46 | 65.30 | 3.7% | 13.3% | 13.6% | 17.2% | 16.1% |
| 2026-08-30 12:00:00 | 78.57 | 0.00 | 10.87 | 195 | 26.08 | 203 | 32.6 | 837.0 | 625.0 | -0.3 | 81.86 | 73.40 | 70.52 | 67.64 | 65.30 | 3.9% | 13.4% | 13.6% | 17.3% | 16.1% |
| 2026-08-30 13:00:00 | 77.83 | 0.00 | 14.44 | 193 | 22.37 | 224 | 31.2 | 837.0 | 513.1 | -0.4 | 83.30 | 75.20 | 70.70 | 67.64 | 65.30 | 4.1% | 13.5% | 13.6% | 17.3% | 16.1% |
| 2026-08-30 14:00:00 | 82.47 | 0.00 | 23.20 | 239 | 35.41 | 204 | 20.3 | 836.0 | 881.0 | -0.5 | 84.38 | 76.82 | 71.24 | 67.46 | 65.30 | 4.1% | 13.5% | 13.6% | 17.3% | 16.1% |
| 2026-08-30 15:00:00 | 69.69 | 0.00 | 27.94 | 327 | 36.28 | 320 | 46.5 | 837.0 | 454.3 | -0.6 | 83.66 | 77.90 | 71.78 | 67.46 | 65.30 | 4.1% | 13.6% | 13.6% | 17.3% | 16.1% |
| 2026-08-30 16:00:00 | 63.91 | 0.00 | 11.26 | 357 | 35.52 | 329 | 63.3 | 838.0 | 195.5 | -0.4 | 82.22 | 78.26 | 72.32 | 67.46 | 65.30 | 4.0% | 13.6% | 13.6% | 17.2% | 16.1% |
| 2026-08-30 17:00:00 | 61.95 | 0.00 | 13.16 | 36 | 19.75 | 44 | 62.0 | 839.0 | 279.0 | -0.3 | 80.24 | 78.08 | 72.68 | 67.46 | 65.30 | 3.9% | 13.5% | 13.7% | 17.2% | 16.1% |
| 2026-08-30 18:00:00 | 60.15 | 0.00 | 5.36 | 70 | 15.65 | 34 | 63.7 | 838.0 | 98.9 | -0.5 | 77.90 | 77.72 | 73.04 | 67.46 | 65.30 | 3.7% | 13.6% | 13.7% | 17.2% | 16.1% |
| 2026-08-30 19:00:00 | 55.35 | 0.00 | 2.23 | 32 | 8.94 | 23 | 71.8 | 838.0 | 0.0 | -0.6 | 74.84 | 76.82 | 73.40 | 67.46 | 65.30 | 3.5% | 13.5% | 13.7% | 17.2% | 16.1% |
| 2026-08-30 20:00:00 | 55.71 | 0.00 | 0.00 | 0 | 7.95 | 80 | 76.4 | 838.0 | 0.0 | -0.6 | 71.42 | 75.74 | 73.40 | 67.46 | 65.30 | 3.4% | 13.5% | 13.7% | 17.2% | 16.1% |
| 2026-08-30 21:00:00 | 54.39 | 0.00 | 4.68 | 87 | 6.96 | 69 | 70.1 | 839.0 | 0.0 | -0.8 | 69.80 | 74.48 | 73.40 | 67.46 | 65.30 | 3.4% | 13.4% | 13.7% | 17.3% | 16.1% |
| 2026-08-30 22:00:00 | 55.20 | 0.00 | 1.65 | 105 | 7.33 | 50 | 57.9 | 839.0 | 0.0 | -0.7 | 68.18 | 73.40 | 73.22 | 67.46 | 65.30 | 3.3% | 13.4% | 13.7% | 17.2% | 16.1% |
| 2026-08-30 23:00:00 | 54.09 | 0.00 | 2.42 | 330 | 5.96 | 68 | 48.7 | 839.0 | 0.0 | -0.8 | 66.74 | 72.14 | 72.86 | 67.46 | 65.30 | 3.3% | 13.4% | 13.7% | 17.3% | 16.1% |